sensor_id;sensor_type;location;lat;lon;timestamp;pressure;altitude;pressure_sealevel;temperature;humidity
56894;BME280;43392;50.078;13.704;2023-06-10T00:02:23;96787.47;;;16.36;84.19
56894;BME280;43392;50.078;13.704;2023-06-10T00:04:50;96783.16;;;16.35;84.49
56894;BME280;43392;50.078;13.704;2023-06-10T00:07:18;96781.88;;;16.33;83.92
56894;BME280;43392;50.078;13.704;2023-06-10T00:09:44;96779.03;;;16.29;84.24
56894;BME280;43392;50.078;13.704;2023-06-10T00:12:11;96771.53;;;16.26;84.14
56894;BME280;43392;50.078;13.704;2023-06-10T00:14:39;96775.69;;;16.15;84.30
56894;BME280;43392;50.078;13.704;2023-06-10T00:17:06;96765.75;;;16.02;84.07
56894;BME280;43392;50.078;13.704;2023-06-10T00:19:36;96782.63;;;15.99;84.28
56894;BME280;43392;50.078;13.704;2023-06-10T00:22:06;96769.22;;;15.94;85.25
56894;BME280;43392;50.078;13.704;2023-06-10T00:24:33;96767.19;;;15.91;85.09
56894;BME280;43392;50.078;13.704;2023-06-10T00:27:00;96768.59;;;15.88;85.00
56894;BME280;43392;50.078;13.704;2023-06-10T00:29:27;96765.91;;;15.88;85.54
56894;BME280;43392;50.078;13.704;2023-06-10T00:31:53;96772.72;;;15.86;85.29
56894;BME280;43392;50.078;13.704;2023-06-10T00:34:22;96768.25;;;15.81;85.11
56894;BME280;43392;50.078;13.704;2023-06-10T00:36:50;96774.44;;;15.82;85.27
56894;BME280;43392;50.078;13.704;2023-06-10T00:39:17;96779.69;;;15.78;85.55
56894;BME280;43392;50.078;13.704;2023-06-10T00:41:44;96772.69;;;15.77;85.33
56894;BME280;43392;50.078;13.704;2023-06-10T00:44:11;96783.19;;;15.79;85.71
56894;BME280;43392;50.078;13.704;2023-06-10T00:46:37;96778.41;;;15.76;85.29
56894;BME280;43392;50.078;13.704;2023-06-10T00:49:05;96775.22;;;15.74;85.61
56894;BME280;43392;50.078;13.704;2023-06-10T00:51:32;96773.94;;;15.71;85.88
56894;BME280;43392;50.078;13.704;2023-06-10T00:54:00;96776.16;;;15.69;85.88
56894;BME280;43392;50.078;13.704;2023-06-10T00:56:27;96771.84;;;15.68;86.08
56894;BME280;43392;50.078;13.704;2023-06-10T00:58:53;96767.06;;;15.65;85.60
56894;BME280;43392;50.078;13.704;2023-06-10T01:01:20;96769.28;;;15.63;86.03
56894;BME280;43392;50.078;13.704;2023-06-10T01:03:47;96773.09;;;15.62;86.35
56894;BME280;43392;50.078;13.704;2023-06-10T01:06:19;96775.31;;;15.60;86.24
56894;BME280;43392;50.078;13.704;2023-06-10T01:08:54;96780.91;;;15.64;86.67
56894;BME280;43392;50.078;13.704;2023-06-10T01:11:29;96782.47;;;15.65;86.58
56894;BME280;43392;50.078;13.704;2023-06-10T01:14:00;96787.41;;;15.63;86.07
56894;BME280;43392;50.078;13.704;2023-06-10T01:16:27;96790.44;;;15.61;86.33
56894;BME280;43392;50.078;13.704;2023-06-10T01:18:54;96789.16;;;15.59;85.98
56894;BME280;43392;50.078;13.704;2023-06-10T01:21:22;96785.16;;;15.56;86.29
56894;BME280;43392;50.078;13.704;2023-06-10T01:23:50;96797.06;;;15.55;86.62
56894;BME280;43392;50.078;13.704;2023-06-10T01:26:19;96792.47;;;15.56;86.44
56894;BME280;43392;50.078;13.704;2023-06-10T01:28:52;96798.19;;;15.54;86.39
56894;BME280;43392;50.078;13.704;2023-06-10T01:31:30;96807.72;;;15.52;86.57
56894;BME280;43392;50.078;13.704;2023-06-10T01:34:03;96806.91;;;15.51;86.73
56894;BME280;43392;50.078;13.704;2023-06-10T01:36:35;96801.50;;;15.51;86.38
56894;BME280;43392;50.078;13.704;2023-06-10T01:39:04;96798.81;;;15.51;86.85
56894;BME280;43392;50.078;13.704;2023-06-10T01:41:31;96811.84;;;15.49;86.64
56894;BME280;43392;50.078;13.704;2023-06-10T01:43:58;96797.84;;;15.47;86.29
56894;BME280;43392;50.078;13.704;2023-06-10T01:46:25;96801.63;;;15.46;86.26
56894;BME280;43392;50.078;13.704;2023-06-10T01:48:51;96802.22;;;15.43;86.09
56894;BME280;43392;50.078;13.704;2023-06-10T01:51:18;96797.75;;;15.39;85.94
56894;BME280;43392;50.078;13.704;2023-06-10T01:53:46;96796.78;;;15.35;86.25
56894;BME280;43392;50.078;13.704;2023-06-10T01:56:12;96805.97;;;15.34;86.75
56894;BME280;43392;50.078;13.704;2023-06-10T01:58:43;96801.69;;;15.33;86.70
56894;BME280;43392;50.078;13.704;2023-06-10T02:01:09;96800.09;;;15.32;87.04
56894;BME280;43392;50.078;13.704;2023-06-10T02:03:36;96803.59;;;15.32;87.02
56894;BME280;43392;50.078;13.704;2023-06-10T02:06:03;96811.22;;;15.30;86.53
56894;BME280;43392;50.078;13.704;2023-06-10T02:08:29;96805.16;;;15.24;86.89
56894;BME280;43392;50.078;13.704;2023-06-10T02:10:57;96804.16;;;15.20;87.62
56894;BME280;43392;50.078;13.704;2023-06-10T02:13:24;96801.75;;;15.19;87.57
56894;BME280;43392;50.078;13.704;2023-06-10T02:15:50;96804.78;;;15.17;87.94
56894;BME280;43392;50.078;13.704;2023-06-10T02:18:18;96798.09;;;15.15;87.37
56894;BME280;43392;50.078;13.704;2023-06-10T02:20:45;96802.53;;;15.11;87.49
56894;BME280;43392;50.078;13.704;2023-06-10T02:23:12;96802.31;;;15.07;87.73
56894;BME280;43392;50.078;13.704;2023-06-10T02:25:39;96794.66;;;15.01;88.08
56894;BME280;43392;50.078;13.704;2023-06-10T02:28:07;96798.09;;;14.93;87.61
56894;BME280;43392;50.078;13.704;2023-06-10T02:30:34;96796.06;;;14.76;87.59
56894;BME280;43392;50.078;13.704;2023-06-10T02:33:00;96802.97;;;14.69;88.25
56894;BME280;43392;50.078;13.704;2023-06-10T02:35:27;96785.94;;;14.59;88.52
56894;BME280;43392;50.078;13.704;2023-06-10T02:37:54;96796.91;;;14.63;88.20
56894;BME280;43392;50.078;13.704;2023-06-10T02:40:20;96804.00;;;14.59;88.90
56894;BME280;43392;50.078;13.704;2023-06-10T02:42:47;96809.22;;;14.55;88.59
56894;BME280;43392;50.078;13.704;2023-06-10T02:45:15;96807.94;;;14.53;88.46
56894;BME280;43392;50.078;13.704;2023-06-10T02:47:42;96809.34;;;14.50;88.90
56894;BME280;43392;50.078;13.704;2023-06-10T02:50:09;96814.84;;;14.45;89.50
56894;BME280;43392;50.078;13.704;2023-06-10T02:52:35;96821.94;;;14.41;89.62
56894;BME280;43392;50.078;13.704;2023-06-10T02:55:02;96817.94;;;14.39;89.97
56894;BME280;43392;50.078;13.704;2023-06-10T02:57:28;96824.88;;;14.31;89.94
56894;BME280;43392;50.078;13.704;2023-06-10T02:59:55;96817.25;;;14.20;89.93
56894;BME280;43392;50.078;13.704;2023-06-10T03:02:25;96828.66;;;14.17;89.39
56894;BME280;43392;50.078;13.704;2023-06-10T03:04:53;96828.94;;;14.15;88.92
56894;BME280;43392;50.078;13.704;2023-06-10T03:07:20;96829.53;;;14.12;88.60
56894;BME280;43392;50.078;13.704;2023-06-10T03:09:48;96834.91;;;14.12;89.42
56894;BME280;43392;50.078;13.704;2023-06-10T03:12:15;96829.66;;;14.07;89.24
56894;BME280;43392;50.078;13.704;2023-06-10T03:14:41;96821.94;;;14.01;89.87
56894;BME280;43392;50.078;13.704;2023-06-10T03:17:08;96833.44;;;14.06;89.68
56894;BME280;43392;50.078;13.704;2023-06-10T03:19:36;96830.44;;;14.08;89.72
56894;BME280;43392;50.078;13.704;2023-06-10T03:22:08;96836.03;;;14.11;89.69
56894;BME280;43392;50.078;13.704;2023-06-10T03:24:35;96829.44;;;14.17;89.59
56894;BME280;43392;50.078;13.704;2023-06-10T03:27:06;96840.00;;;14.27;89.27
56894;BME280;43392;50.078;13.704;2023-06-10T03:29:32;96848.53;;;14.34;89.44
56894;BME280;43392;50.078;13.704;2023-06-10T03:31:59;96848.31;;;14.44;89.31
56894;BME280;43392;50.078;13.704;2023-06-10T03:34:25;96848.69;;;14.51;89.22
56894;BME280;43392;50.078;13.704;2023-06-10T03:36:53;96848.59;;;14.56;88.88
56894;BME280;43392;50.078;13.704;2023-06-10T03:39:20;96844.69;;;14.63;88.91
56894;BME280;43392;50.078;13.704;2023-06-10T03:41:46;96846.66;;;14.71;88.55
56894;BME280;43392;50.078;13.704;2023-06-10T03:44:13;96838.16;;;14.77;88.54
56894;BME280;43392;50.078;13.704;2023-06-10T03:46:40;96856.13;;;14.82;87.91
56894;BME280;43392;50.078;13.704;2023-06-10T03:49:07;96851.91;;;14.89;87.84
56894;BME280;43392;50.078;13.704;2023-06-10T03:51:36;96850.06;;;14.98;88.52
56894;BME280;43392;50.078;13.704;2023-06-10T03:54:04;96844.84;;;15.02;87.69
56894;BME280;43392;50.078;13.704;2023-06-10T03:56:31;96850.66;;;15.09;87.47
56894;BME280;43392;50.078;13.704;2023-06-10T03:58:58;96851.13;;;15.11;87.45
56894;BME280;43392;50.078;13.704;2023-06-10T04:01:24;96850.50;;;15.14;87.38
56894;BME280;43392;50.078;13.704;2023-06-10T04:03:51;96852.13;;;15.15;86.89
56894;BME280;43392;50.078;13.704;2023-06-10T04:06:19;96853.41;;;15.17;87.67
56894;BME280;43392;50.078;13.704;2023-06-10T04:08:47;96859.00;;;15.21;87.40
56894;BME280;43392;50.078;13.704;2023-06-10T04:11:15;96870.91;;;15.20;87.68
56894;BME280;43392;50.078;13.704;2023-06-10T04:13:42;96879.84;;;15.07;88.28
56894;BME280;43392;50.078;13.704;2023-06-10T04:16:09;96872.16;;;15.00;88.81
56894;BME280;43392;50.078;13.704;2023-06-10T04:18:35;96877.50;;;14.92;89.36
56894;BME280;43392;50.078;13.704;2023-06-10T04:21:02;96864.50;;;14.94;89.09
56894;BME280;43392;50.078;13.704;2023-06-10T04:23:29;96870.75;;;15.03;89.24
56894;BME280;43392;50.078;13.704;2023-06-10T04:25:55;96863.34;;;15.08;89.01
56894;BME280;43392;50.078;13.704;2023-06-10T04:28:23;96873.22;;;15.13;88.37
56894;BME280;43392;50.078;13.704;2023-06-10T04:30:50;96877.50;;;15.14;88.09
56894;BME280;43392;50.078;13.704;2023-06-10T04:33:16;96874.19;;;15.17;88.36
56894;BME280;43392;50.078;13.704;2023-06-10T04:35:43;96875.97;;;15.21;88.85
56894;BME280;43392;50.078;13.704;2023-06-10T04:38:12;96881.75;;;15.28;88.28
56894;BME280;43392;50.078;13.704;2023-06-10T04:40:39;96880.53;;;15.35;88.11
56894;BME280;43392;50.078;13.704;2023-06-10T04:43:06;96873.53;;;15.34;88.32
56894;BME280;43392;50.078;13.704;2023-06-10T04:45:34;96877.53;;;15.36;88.11
56894;BME280;43392;50.078;13.704;2023-06-10T04:48:00;96883.41;;;15.38;88.58
56894;BME280;43392;50.078;13.704;2023-06-10T04:50:27;96883.59;;;15.42;88.78
56894;BME280;43392;50.078;13.704;2023-06-10T04:52:54;96881.38;;;15.44;88.59
56894;BME280;43392;50.078;13.704;2023-06-10T04:55:22;96876.59;;;15.41;89.10
56894;BME280;43392;50.078;13.704;2023-06-10T04:57:49;96885.56;;;15.27;89.97
56894;BME280;43392;50.078;13.704;2023-06-10T05:00:16;96891.78;;;15.28;90.15
56894;BME280;43392;50.078;13.704;2023-06-10T05:02:44;96887.97;;;15.29;89.96
56894;BME280;43392;50.078;13.704;2023-06-10T05:05:14;96886.19;;;15.24;90.33
56894;BME280;43392;50.078;13.704;2023-06-10T05:07:41;96890.78;;;15.24;90.34
56894;BME280;43392;50.078;13.704;2023-06-10T05:10:08;96881.75;;;15.28;90.56
56894;BME280;43392;50.078;13.704;2023-06-10T05:12:35;96887.34;;;15.32;91.13
56894;BME280;43392;50.078;13.704;2023-06-10T05:15:04;96887.31;;;15.46;91.16
56894;BME280;43392;50.078;13.704;2023-06-10T05:17:30;96895.53;;;15.63;90.22
56894;BME280;43392;50.078;13.704;2023-06-10T05:19:58;96898.31;;;15.71;89.30
56894;BME280;43392;50.078;13.704;2023-06-10T05:22:25;96898.78;;;15.73;88.89
56894;BME280;43392;50.078;13.704;2023-06-10T05:24:52;96903.84;;;15.66;89.72
56894;BME280;43392;50.078;13.704;2023-06-10T05:27:19;96902.09;;;15.70;89.58
56894;BME280;43392;50.078;13.704;2023-06-10T05:29:46;96908.19;;;15.76;89.59
56894;BME280;43392;50.078;13.704;2023-06-10T05:32:13;96895.03;;;15.83;89.85
56894;BME280;43392;50.078;13.704;2023-06-10T05:34:39;96900.66;;;15.95;90.03
56894;BME280;43392;50.078;13.704;2023-06-10T05:37:07;96903.38;;;16.04;89.55
56894;BME280;43392;50.078;13.704;2023-06-10T05:39:35;96904.84;;;16.10;89.29
56894;BME280;43392;50.078;13.704;2023-06-10T05:42:03;96900.41;;;16.14;89.51
56894;BME280;43392;50.078;13.704;2023-06-10T05:44:29;96904.59;;;16.20;89.21
56894;BME280;43392;50.078;13.704;2023-06-10T05:46:56;96918.47;;;16.27;89.70
56894;BME280;43392;50.078;13.704;2023-06-10T05:49:23;96902.56;;;16.34;89.21
56894;BME280;43392;50.078;13.704;2023-06-10T05:51:49;96904.66;;;16.45;89.17
56894;BME280;43392;50.078;13.704;2023-06-10T05:54:19;96911.13;;;16.58;88.84
56894;BME280;43392;50.078;13.704;2023-06-10T05:56:45;96899.50;;;16.66;88.38
56894;BME280;43392;50.078;13.704;2023-06-10T05:59:12;96905.88;;;16.79;87.83
56894;BME280;43392;50.078;13.704;2023-06-10T06:01:39;96903.69;;;16.89;87.34
56894;BME280;43392;50.078;13.704;2023-06-10T06:04:05;96906.72;;;16.96;86.82
56894;BME280;43392;50.078;13.704;2023-06-10T06:06:32;96902.09;;;17.05;86.62
56894;BME280;43392;50.078;13.704;2023-06-10T06:08:59;96901.16;;;17.10;86.66
56894;BME280;43392;50.078;13.704;2023-06-10T06:11:26;96901.16;;;17.10;86.05
56894;BME280;43392;50.078;13.704;2023-06-10T06:13:53;96897.97;;;17.16;85.89
56894;BME280;43392;50.078;13.704;2023-06-10T06:16:20;96906.09;;;17.25;86.33
56894;BME280;43392;50.078;13.704;2023-06-10T06:18:46;96900.34;;;17.35;85.84
56894;BME280;43392;50.078;13.704;2023-06-10T06:21:13;96902.56;;;17.42;85.02
56894;BME280;43392;50.078;13.704;2023-06-10T06:23:40;96908.16;;;17.45;85.13
56894;BME280;43392;50.078;13.704;2023-06-10T06:26:06;96914.41;;;17.54;84.62
56894;BME280;43392;50.078;13.704;2023-06-10T06:28:34;96913.28;;;17.64;84.07
56894;BME280;43392;50.078;13.704;2023-06-10T06:31:01;96916.28;;;17.71;84.00
56894;BME280;43392;50.078;13.704;2023-06-10T06:33:28;96916.59;;;17.78;82.53
56894;BME280;43392;50.078;13.704;2023-06-10T06:35:55;96924.25;;;17.84;82.33
56894;BME280;43392;50.078;13.704;2023-06-10T06:38:22;96914.81;;;17.90;82.45
56894;BME280;43392;50.078;13.704;2023-06-10T06:40:48;96925.19;;;17.97;81.95
56894;BME280;43392;50.078;13.704;2023-06-10T06:43:15;96908.56;;;17.99;81.41
56894;BME280;43392;50.078;13.704;2023-06-10T06:45:44;96921.50;;;17.93;81.84
56894;BME280;43392;50.078;13.704;2023-06-10T06:48:11;96918.47;;;18.03;82.33
56894;BME280;43392;50.078;13.704;2023-06-10T06:50:38;96917.59;;;18.20;81.81
56894;BME280;43392;50.078;13.704;2023-06-10T06:53:07;96933.06;;;18.28;80.83
56894;BME280;43392;50.078;13.704;2023-06-10T06:55:33;96929.50;;;18.44;79.91
56894;BME280;43392;50.078;13.704;2023-06-10T06:58:00;96940.94;;;18.59;78.63
56894;BME280;43392;50.078;13.704;2023-06-10T07:00:29;96937.88;;;18.69;79.33
56894;BME280;43392;50.078;13.704;2023-06-10T07:02:57;96941.78;;;18.80;78.37
56894;BME280;43392;50.078;13.704;2023-06-10T07:05:24;96945.13;;;18.85;77.67
56894;BME280;43392;50.078;13.704;2023-06-10T07:07:52;96947.28;;;19.00;77.13
56894;BME280;43392;50.078;13.704;2023-06-10T07:10:20;96950.78;;;19.01;76.72
56894;BME280;43392;50.078;13.704;2023-06-10T07:12:47;96950.13;;;19.04;76.75
56894;BME280;43392;50.078;13.704;2023-06-10T07:15:14;96948.34;;;19.08;76.73
56894;BME280;43392;50.078;13.704;2023-06-10T07:17:41;96951.56;;;19.01;76.62
56894;BME280;43392;50.078;13.704;2023-06-10T07:20:10;96955.44;;;19.00;75.70
56894;BME280;43392;50.078;13.704;2023-06-10T07:22:36;96949.00;;;19.05;76.10
56894;BME280;43392;50.078;13.704;2023-06-10T07:25:04;96959.69;;;19.10;75.99
56894;BME280;43392;50.078;13.704;2023-06-10T07:27:31;96954.06;;;19.15;75.44
56894;BME280;43392;50.078;13.704;2023-06-10T07:29:58;96953.88;;;19.20;74.04
56894;BME280;43392;50.078;13.704;2023-06-10T07:32:26;96953.88;;;19.20;74.86
56894;BME280;43392;50.078;13.704;2023-06-10T07:34:52;96963.13;;;19.19;74.25
56894;BME280;43392;50.078;13.704;2023-06-10T07:37:20;96954.53;;;19.17;73.97
56894;BME280;43392;50.078;13.704;2023-06-10T07:39:47;96965.66;;;19.24;75.76
56894;BME280;43392;50.078;13.704;2023-06-10T07:42:14;96957.13;;;19.34;75.10
56894;BME280;43392;50.078;13.704;2023-06-10T07:44:40;96968.28;;;19.41;74.83
56894;BME280;43392;50.078;13.704;2023-06-10T07:47:07;96959.38;;;19.32;74.41
56894;BME280;43392;50.078;13.704;2023-06-10T07:49:33;96960.63;;;19.35;74.47
56894;BME280;43392;50.078;13.704;2023-06-10T07:52:00;96964.47;;;19.42;74.74
56894;BME280;43392;50.078;13.704;2023-06-10T07:54:28;96968.25;;;19.50;74.20
56894;BME280;43392;50.078;13.704;2023-06-10T07:56:55;96968.69;;;19.52;72.51
56894;BME280;43392;50.078;13.704;2023-06-10T07:59:21;96962.72;;;19.58;73.26
56894;BME280;43392;50.078;13.704;2023-06-10T08:01:48;96969.22;;;19.66;72.61
56894;BME280;43392;50.078;13.704;2023-06-10T08:04:15;96976.16;;;19.75;72.63
56894;BME280;43392;50.078;13.704;2023-06-10T08:06:41;96968.59;;;19.81;72.60
56894;BME280;43392;50.078;13.704;2023-06-10T08:09:08;96972.59;;;19.83;71.95
56894;BME280;43392;50.078;13.704;2023-06-10T08:11:36;96972.84;;;19.91;71.79
56894;BME280;43392;50.078;13.704;2023-06-10T08:14:02;96976.03;;;19.93;71.83
56894;BME280;43392;50.078;13.704;2023-06-10T08:16:29;96977.47;;;19.90;71.49
56894;BME280;43392;50.078;13.704;2023-06-10T08:18:56;96978.81;;;19.84;71.41
56894;BME280;43392;50.078;13.704;2023-06-10T08:21:22;96990.13;;;19.74;71.75
56894;BME280;43392;50.078;13.704;2023-06-10T08:23:52;96981.09;;;19.61;71.67
56894;BME280;43392;50.078;13.704;2023-06-10T08:26:18;96998.88;;;19.59;72.31
56894;BME280;43392;50.078;13.704;2023-06-10T08:28:46;96997.88;;;19.63;72.75
56894;BME280;43392;50.078;13.704;2023-06-10T08:31:13;97001.59;;;19.59;71.90
56894;BME280;43392;50.078;13.704;2023-06-10T08:33:41;96997.88;;;19.63;72.90
56894;BME280;43392;50.078;13.704;2023-06-10T08:36:07;97002.31;;;19.68;72.49
56894;BME280;43392;50.078;13.704;2023-06-10T08:38:34;97003.13;;;19.68;71.18
56894;BME280;43392;50.078;13.704;2023-06-10T08:41:01;96993.56;;;19.62;71.81
56894;BME280;43392;50.078;13.704;2023-06-10T08:43:32;97006.97;;;19.67;71.80
56894;BME280;43392;50.078;13.704;2023-06-10T08:46:01;97001.66;;;19.71;72.00
56894;BME280;43392;50.078;13.704;2023-06-10T08:48:29;97000.66;;;19.75;71.79
56894;BME280;43392;50.078;13.704;2023-06-10T08:50:57;97008.28;;;19.82;72.19
56894;BME280;43392;50.078;13.704;2023-06-10T08:53:24;97002.53;;;19.83;71.74
56894;BME280;43392;50.078;13.704;2023-06-10T08:55:53;97002.19;;;19.85;71.77
56894;BME280;43392;50.078;13.704;2023-06-10T08:58:20;97009.53;;;19.84;72.01
56894;BME280;43392;50.078;13.704;2023-06-10T09:00:47;97010.81;;;19.87;72.48
56894;BME280;43392;50.078;13.704;2023-06-10T09:03:15;97010.44;;;19.88;72.12
56894;BME280;43392;50.078;13.704;2023-06-10T09:05:42;97013.88;;;19.85;72.07
56894;BME280;43392;50.078;13.704;2023-06-10T09:08:09;97012.25;;;19.84;72.00
56894;BME280;43392;50.078;13.704;2023-06-10T09:10:36;97004.69;;;19.90;71.86
56894;BME280;43392;50.078;13.704;2023-06-10T09:13:04;97011.56;;;20.08;71.28
56894;BME280;43392;50.078;13.704;2023-06-10T09:15:30;97004.72;;;20.23;71.19
56894;BME280;43392;50.078;13.704;2023-06-10T09:17:57;97005.25;;;20.37;70.68
56894;BME280;43392;50.078;13.704;2023-06-10T09:20:26;97008.31;;;20.47;70.09
56894;BME280;43392;50.078;13.704;2023-06-10T09:22:53;97000.28;;;20.63;70.06
56894;BME280;43392;50.078;13.704;2023-06-10T09:25:34;97006.66;;;20.79;69.94
56894;BME280;43392;50.078;13.704;2023-06-10T09:28:01;97004.84;;;20.95;69.47
56894;BME280;43392;50.078;13.704;2023-06-10T09:30:29;96999.28;;;20.92;69.01
56894;BME280;43392;50.078;13.704;2023-06-10T09:32:57;96996.66;;;20.83;69.93
56894;BME280;43392;50.078;13.704;2023-06-10T09:35:27;96997.59;;;20.87;69.45
56894;BME280;43392;50.078;13.704;2023-06-10T09:37:56;96995.06;;;20.82;69.63
56894;BME280;43392;50.078;13.704;2023-06-10T09:40:23;96995.06;;;20.70;69.56
56894;BME280;43392;50.078;13.704;2023-06-10T09:42:53;97002.09;;;20.71;68.78
56894;BME280;43392;50.078;13.704;2023-06-10T09:45:20;97005.06;;;20.90;67.85
56894;BME280;43392;50.078;13.704;2023-06-10T09:47:50;96999.41;;;21.07;67.07
56894;BME280;43392;50.078;13.704;2023-06-10T09:50:17;97003.50;;;21.26;65.60
56894;BME280;43392;50.078;13.704;2023-06-10T09:52:46;97001.19;;;21.40;65.05
56894;BME280;43392;50.078;13.704;2023-06-10T09:55:13;97008.00;;;21.58;64.64
56894;BME280;43392;50.078;13.704;2023-06-10T09:57:39;97007.28;;;21.61;65.28
56894;BME280;43392;50.078;13.704;2023-06-10T10:00:08;96999.47;;;21.59;65.17
56894;BME280;43392;50.078;13.704;2023-06-10T10:02:44;97007.88;;;21.54;65.90
56894;BME280;43392;50.078;13.704;2023-06-10T10:05:12;97002.53;;;21.58;65.53
56894;BME280;43392;50.078;13.704;2023-06-10T10:07:39;97003.66;;;21.57;65.65
56894;BME280;43392;50.078;13.704;2023-06-10T10:10:07;97000.50;;;21.55;65.84
56894;BME280;43392;50.078;13.704;2023-06-10T10:12:35;97004.81;;;21.44;64.99
56894;BME280;43392;50.078;13.704;2023-06-10T10:15:03;97007.34;;;21.37;64.88
56894;BME280;43392;50.078;13.704;2023-06-10T10:17:33;97018.25;;;21.25;64.12
56894;BME280;43392;50.078;13.704;2023-06-10T10:20:02;97001.34;;;21.19;63.64
56894;BME280;43392;50.078;13.704;2023-06-10T10:22:33;97002.84;;;21.17;63.38
56894;BME280;43392;50.078;13.704;2023-06-10T10:25:02;97001.22;;;21.15;63.42
56894;BME280;43392;50.078;13.704;2023-06-10T10:27:36;97006.22;;;21.13;63.64
56894;BME280;43392;50.078;13.704;2023-06-10T10:30:08;97008.06;;;21.09;63.30
56894;BME280;43392;50.078;13.704;2023-06-10T10:32:40;97001.81;;;21.09;64.23
56894;BME280;43392;50.078;13.704;2023-06-10T10:35:13;97007.59;;;21.07;62.95
56894;BME280;43392;50.078;13.704;2023-06-10T10:37:42;97012.91;;;21.04;63.59
56894;BME280;43392;50.078;13.704;2023-06-10T10:40:10;97008.81;;;20.98;63.89
56894;BME280;43392;50.078;13.704;2023-06-10T10:42:39;97012.34;;;20.98;64.38
56894;BME280;43392;50.078;13.704;2023-06-10T10:45:07;97009.16;;;20.96;64.31
56894;BME280;43392;50.078;13.704;2023-06-10T10:47:36;97012.56;;;20.93;64.67
56894;BME280;43392;50.078;13.704;2023-06-10T10:50:13;97011.31;;;20.91;64.91
56894;BME280;43392;50.078;13.704;2023-06-10T10:52:50;97006.88;;;20.86;63.74
56894;BME280;43392;50.078;13.704;2023-06-10T10:55:17;97007.22;;;20.85;64.56
56894;BME280;43392;50.078;13.704;2023-06-10T10:57:53;97006.88;;;20.86;65.16
56894;BME280;43392;50.078;13.704;2023-06-10T11:00:27;97009.38;;;20.91;65.87
56894;BME280;43392;50.078;13.704;2023-06-10T11:02:58;97001.34;;;20.95;65.29
56894;BME280;43392;50.078;13.704;2023-06-10T11:05:31;97008.38;;;21.08;66.19
56894;BME280;43392;50.078;13.704;2023-06-10T11:07:58;97009.41;;;21.15;65.89
56894;BME280;43392;50.078;13.704;2023-06-10T11:10:32;97002.72;;;21.13;66.20
56894;BME280;43392;50.078;13.704;2023-06-10T11:13:02;96995.31;;;21.26;65.13
56894;BME280;43392;50.078;13.704;2023-06-10T11:15:31;97004.97;;;21.35;63.52
56894;BME280;43392;50.078;13.704;2023-06-10T11:18:20;97005.53;;;21.41;63.84
56894;BME280;43392;50.078;13.704;2023-06-10T11:20:57;96997.44;;;21.44;63.70
56894;BME280;43392;50.078;13.704;2023-06-10T11:23:33;96978.72;;;21.31;63.72
56894;BME280;43392;50.078;13.704;2023-06-10T11:26:20;96994.50;;;21.37;64.61
56894;BME280;43392;50.078;13.704;2023-06-10T11:29:07;96983.25;;;21.27;65.30
56894;BME280;43392;50.078;13.704;2023-06-10T11:31:43;96985.88;;;21.35;65.50
56894;BME280;43392;50.078;13.704;2023-06-10T11:34:10;96981.75;;;21.41;66.30
56894;BME280;43392;50.078;13.704;2023-06-10T11:36:38;96982.00;;;21.48;64.99
56894;BME280;43392;50.078;13.704;2023-06-10T11:39:08;96985.03;;;21.47;65.10
56894;BME280;43392;50.078;13.704;2023-06-10T11:41:35;96980.41;;;21.35;64.87
56894;BME280;43392;50.078;13.704;2023-06-10T11:44:04;96993.78;;;21.52;63.73
56894;BME280;43392;50.078;13.704;2023-06-10T11:46:35;96986.88;;;21.43;63.43
56894;BME280;43392;50.078;13.704;2023-06-10T11:49:02;96974.38;;;21.42;64.08
56894;BME280;43392;50.078;13.704;2023-06-10T11:51:33;96979.50;;;21.43;64.73
56894;BME280;43392;50.078;13.704;2023-06-10T11:54:00;96973.22;;;21.43;64.64
56894;BME280;43392;50.078;13.704;2023-06-10T11:56:27;96978.09;;;21.49;64.46
56894;BME280;43392;50.078;13.704;2023-06-10T11:58:56;96973.28;;;21.58;64.94
56894;BME280;43392;50.078;13.704;2023-06-10T12:01:24;96977.03;;;21.66;62.59
56894;BME280;43392;50.078;13.704;2023-06-10T12:04:00;96973.63;;;21.69;62.48
56894;BME280;43392;50.078;13.704;2023-06-10T12:06:37;96977.09;;;21.81;62.14
56894;BME280;43392;50.078;13.704;2023-06-10T12:09:04;96967.66;;;21.91;61.78
56894;BME280;43392;50.078;13.704;2023-06-10T12:11:31;96974.03;;;22.11;61.94
56894;BME280;43392;50.078;13.704;2023-06-10T12:13:57;96978.53;;;22.19;62.04
56894;BME280;43392;50.078;13.704;2023-06-10T12:16:24;96977.75;;;22.18;61.14
56894;BME280;43392;50.078;13.704;2023-06-10T12:18:50;96981.63;;;22.17;61.33
56894;BME280;43392;50.078;13.704;2023-06-10T12:21:23;96976.66;;;22.07;61.62
56894;BME280;43392;50.078;13.704;2023-06-10T12:24:05;96979.31;;;22.04;60.26
56894;BME280;43392;50.078;13.704;2023-06-10T12:26:39;96975.19;;;22.10;60.63
56894;BME280;43392;50.078;13.704;2023-06-10T12:29:15;96968.91;;;22.09;59.19
56894;BME280;43392;50.078;13.704;2023-06-10T12:31:57;96971.84;;;22.16;59.33
56894;BME280;43392;50.078;13.704;2023-06-10T12:34:35;96966.72;;;22.15;58.47
56894;BME280;43392;50.078;13.704;2023-06-10T12:37:06;96969.75;;;22.25;59.40
56894;BME280;43392;50.078;13.704;2023-06-10T12:39:39;96970.41;;;22.07;59.25
56894;BME280;43392;50.078;13.704;2023-06-10T12:42:06;96971.66;;;22.09;59.79
56894;BME280;43392;50.078;13.704;2023-06-10T12:44:35;96965.50;;;22.12;59.54
56894;BME280;43392;50.078;13.704;2023-06-10T12:47:08;96957.47;;;22.04;59.14
56894;BME280;43392;50.078;13.704;2023-06-10T12:49:35;96963.19;;;21.99;58.84
56894;BME280;43392;50.078;13.704;2023-06-10T12:52:04;96949.59;;;22.02;59.67
56894;BME280;43392;50.078;13.704;2023-06-10T12:54:31;96946.56;;;22.19;59.46
56894;BME280;43392;50.078;13.704;2023-06-10T12:56:58;96944.22;;;22.49;58.18